Time;durP1;ratioP1;P1;durP2;ratioP2;P2;SDS_P1;SDS_P2;PMS_P1;PMS_P2;Temp;Humidity;BMP_temperature;BMP_pressure;BME280_temperature;BME280_humidity;BME280_pressure;Samples;Min_cycle;Max_cycle;Signal;HPM_P1;HPM_P2
2023/08/02 00:01:10;;;;;;;2.42;1.35;;;15.30;99.90;;;;;;5004830;28;20026;-35
2023/08/02 00:03:36;;;;;;;1.67;1.30;;;15.30;99.90;;;;;;5003829;28;20048;-39
2023/08/02 00:06:02;;;;;;;1.48;1.38;;;15.40;99.90;;;;;;5011020;28;20479;-39
2023/08/02 00:08:29;;;;;;;3.33;1.73;;;15.30;99.90;;;;;;5005152;28;20078;-40
2023/08/02 00:10:54;;;;;;;3.03;1.50;;;15.30;99.90;;;;;;5001692;28;20536;-40
2023/08/02 00:13:20;;;;;;;1.75;1.30;;;15.30;99.90;;;;;;5009481;28;20034;-41
2023/08/02 00:15:46;;;;;;;2.03;1.63;;;15.30;99.90;;;;;;5004269;28;20029;-38
2023/08/02 00:18:11;;;;;;;1.60;1.50;;;15.30;99.90;;;;;;5005553;28;20034;-37
2023/08/02 00:20:38;;;;;;;1.73;1.30;;;15.30;99.90;;;;;;4989873;28;20029;-40
2023/08/02 00:23:04;;;;;;;1.35;1.25;;;15.20;99.90;;;;;;4990604;28;20475;-39
2023/08/02 00:25:30;;;;;;;2.83;1.50;;;15.20;99.90;;;;;;5003778;28;20057;-40
2023/08/02 00:27:56;;;;;;;1.63;1.50;;;15.20;99.90;;;;;;5004846;28;20509;-41
2023/08/02 00:30:21;;;;;;;1.45;1.35;;;15.20;99.90;;;;;;5011171;28;20036;-39
2023/08/02 00:32:48;;;;;;;2.35;1.30;;;15.20;99.90;;;;;;5002717;28;20599;-40
2023/08/02 00:35:15;;;;;;;2.83;1.40;;;15.10;99.90;;;;;;5001144;28;20760;-41
2023/08/02 00:37:42;;;;;;;2.35;1.23;;;15.10;99.90;;;;;;5001744;28;20030;-40
2023/08/02 00:40:08;;;;;;;2.15;1.70;;;15.00;99.90;;;;;;5004331;28;20033;-37
2023/08/02 00:42:35;;;;;;;1.45;1.35;;;15.00;99.90;;;;;;5009163;28;20027;-39
2023/08/02 00:45:01;;;;;;;1.58;1.33;;;15.00;99.90;;;;;;5003228;28;20068;-38
2023/08/02 00:47:27;;;;;;;1.40;1.27;;;15.00;99.90;;;;;;5008758;28;20037;-41
2023/08/02 00:49:53;;;;;;;2.22;1.42;;;14.90;99.90;;;;;;5001513;28;20140;-41
2023/08/02 00:52:20;;;;;;;1.33;1.15;;;14.90;99.90;;;;;;4992691;28;20058;-39
2023/08/02 00:54:47;;;;;;;2.05;1.50;;;14.90;99.90;;;;;;5003590;28;20045;-41
2023/08/02 00:57:14;;;;;;;2.63;1.30;;;15.00;99.90;;;;;;5003714;28;20117;-40
2023/08/02 00:59:42;;;;;;;1.77;1.45;;;14.90;99.90;;;;;;5007704;28;20060;-40
2023/08/02 01:02:09;;;;;;;2.95;1.60;;;14.90;99.90;;;;;;5004509;28;20061;-39
2023/08/02 01:04:36;;;;;;;2.15;1.40;;;14.80;99.90;;;;;;5009199;28;20080;-40
2023/08/02 01:07:15;;;;;;;2.65;1.60;;;14.80;99.90;;;;;;5009088;28;20036;-36
2023/08/02 01:09:47;;;;;;;2.63;1.85;;;14.80;99.90;;;;;;5002137;28;20546;-40
2023/08/02 01:12:15;;;;;;;1.48;1.38;;;14.80;99.90;;;;;;5001008;28;20590;-41
2023/08/02 01:14:43;;;;;;;1.65;1.40;;;14.80;99.90;;;;;;5004442;28;20027;-39
2023/08/02 01:17:12;;;;;;;1.55;1.15;;;14.80;99.90;;;;;;5003702;28;20038;-40
2023/08/02 01:19:38;;;;;;;3.88;1.50;;;14.80;99.90;;;;;;5005879;28;20667;-40
2023/08/02 01:22:04;;;;;;;2.00;1.67;;;14.80;99.90;;;;;;5004484;28;20029;-37
2023/08/02 01:24:35;;;;;;;2.00;1.60;;;14.70;99.90;;;;;;5005744;28;20030;-40
2023/08/02 01:27:11;;;;;;;3.15;1.60;;;14.70;99.90;;;;;;5007395;28;20117;-35
2023/08/02 01:29:41;;;;;;;1.65;1.40;;;14.60;99.90;;;;;;5005775;28;20060;-31
2023/08/02 01:32:09;;;;;;;2.28;1.70;;;14.60;99.90;;;;;;5005077;28;20390;-32
2023/08/02 01:34:35;;;;;;;1.30;1.23;;;14.50;99.90;;;;;;4991866;28;20045;-32
2023/08/02 01:37:01;;;;;;;1.55;1.40;;;14.50;99.90;;;;;;5006633;28;20037;-32
2023/08/02 01:39:26;;;;;;;2.95;1.67;;;14.40;99.90;;;;;;5001448;28;20030;-41
2023/08/02 01:41:52;;;;;;;4.00;1.35;;;14.40;99.90;;;;;;5008884;28;20025;-40
2023/08/02 01:44:17;;;;;;;1.77;1.42;;;14.30;99.90;;;;;;4993877;28;21721;-37
2023/08/02 01:46:43;;;;;;;2.22;1.50;;;14.30;99.90;;;;;;5007936;28;20390;-40
2023/08/02 01:49:09;;;;;;;2.85;1.55;;;14.30;99.90;;;;;;4999421;28;20034;-40
2023/08/02 01:51:34;;;;;;;4.38;1.33;;;14.30;99.90;;;;;;5003111;28;20022;-38
2023/08/02 01:54:00;;;;;;;4.70;1.58;;;14.20;99.90;;;;;;5005830;28;20038;-40
2023/08/02 01:56:25;;;;;;;2.25;1.40;;;14.10;99.90;;;;;;5000158;28;20088;-37
2023/08/02 01:58:51;;;;;;;2.38;1.38;;;14.10;99.90;;;;;;5005112;28;20037;-40
2023/08/02 02:01:16;;;;;;;1.85;1.35;;;14.00;99.90;;;;;;4999930;28;20038;-37
2023/08/02 02:03:42;;;;;;;2.72;1.50;;;14.00;99.90;;;;;;5003475;28;20070;-40
2023/08/02 02:06:08;;;;;;;1.55;1.42;;;14.00;99.90;;;;;;5008314;28;20467;-41
2023/08/02 02:08:33;;;;;;;2.60;1.95;;;13.90;99.90;;;;;;5003835;28;20034;-41
2023/08/02 02:10:59;;;;;;;4.43;1.90;;;13.80;99.90;;;;;;5001743;28;20450;-40
2023/08/02 02:13:25;;;;;;;2.83;1.58;;;13.80;99.90;;;;;;4997788;28;20406;-40
2023/08/02 02:15:51;;;;;;;2.70;1.60;;;13.80;99.90;;;;;;5007503;28;20053;-40
2023/08/02 02:18:16;;;;;;;6.05;1.65;;;13.90;99.90;;;;;;4998384;28;20223;-41
2023/08/02 02:20:42;;;;;;;2.17;1.50;;;13.80;99.90;;;;;;5000770;28;20521;-39
2023/08/02 02:23:08;;;;;;;4.07;1.80;;;13.80;99.90;;;;;;5002873;28;20030;-38
2023/08/02 02:25:34;;;;;;;4.72;1.80;;;13.70;99.90;;;;;;5002521;28;20057;-38
2023/08/02 02:27:59;;;;;;;2.92;1.60;;;13.70;99.90;;;;;;5005228;28;20131;-39
2023/08/02 02:30:25;;;;;;;1.98;1.38;;;13.70;99.90;;;;;;5004614;28;20063;-40
2023/08/02 02:32:50;;;;;;;3.45;1.60;;;13.70;99.90;;;;;;4999983;28;20057;-40
2023/08/02 02:35:16;;;;;;;2.90;1.60;;;13.70;99.90;;;;;;5003588;28;20480;-38
2023/08/02 02:37:42;;;;;;;4.07;1.70;;;13.70;99.90;;;;;;5002349;28;20026;-38
2023/08/02 02:40:09;;;;;;;1.70;1.40;;;13.60;99.90;;;;;;4987813;28;20022;-41
2023/08/02 02:42:38;;;;;;;1.50;1.30;;;13.60;99.90;;;;;;5002249;28;20065;-38
2023/08/02 02:45:04;;;;;;;1.58;1.40;;;13.60;99.90;;;;;;5000068;28;20034;-39
2023/08/02 02:47:30;;;;;;;1.17;1.08;;;13.50;99.90;;;;;;4996941;28;20398;-40
2023/08/02 02:49:55;;;;;;;2.05;1.70;;;13.50;99.90;;;;;;5004312;28;20029;-31
2023/08/02 02:52:21;;;;;;;1.58;1.48;;;13.40;99.90;;;;;;5002700;28;20049;-31
2023/08/02 02:54:46;;;;;;;3.97;1.63;;;13.40;99.90;;;;;;5007932;28;20084;-31
2023/08/02 02:57:12;;;;;;;1.77;1.65;;;13.40;99.90;;;;;;5005168;28;20387;-31
2023/08/02 02:59:37;;;;;;;2.47;1.75;;;13.30;99.90;;;;;;5007350;28;20090;-32
2023/08/02 03:02:03;;;;;;;2.45;1.55;;;13.20;99.90;;;;;;5000742;28;20058;-31
2023/08/02 03:04:29;;;;;;;2.28;1.98;;;13.10;99.90;;;;;;5006804;28;20032;-30
2023/08/02 03:06:54;;;;;;;2.72;1.80;;;13.00;99.90;;;;;;5003228;28;20030;-33
2023/08/02 03:09:20;;;;;;;1.95;1.63;;;12.90;99.90;;;;;;5000024;28;20042;-30
2023/08/02 03:11:46;;;;;;;2.70;1.95;;;12.90;99.90;;;;;;5003369;28;20042;-31
2023/08/02 03:14:12;;;;;;;2.83;2.05;;;12.90;99.90;;;;;;4995437;28;20030;-31
2023/08/02 03:16:37;;;;;;;3.83;1.52;;;12.90;99.90;;;;;;4998832;28;20041;-32
2023/08/02 03:19:04;;;;;;;1.15;0.80;;;13.00;99.90;;;;;;5001895;28;20040;-30
2023/08/02 03:21:29;;;;;;;1.15;1.15;;;12.90;99.90;;;;;;5001251;28;20444;-31
2023/08/02 03:23:55;;;;;;;1.30;1.20;;;12.70;99.90;;;;;;4997386;28;20030;-31
2023/08/02 03:26:20;;;;;;;2.08;1.20;;;12.80;99.90;;;;;;4989888;28;20030;-32
2023/08/02 03:28:46;;;;;;;2.22;1.48;;;12.80;99.90;;;;;;5008911;28;20385;-31
2023/08/02 03:31:12;;;;;;;3.95;2.53;;;12.80;99.90;;;;;;5002658;28;20132;-30
2023/08/02 03:33:38;;;;;;;3.22;1.80;;;12.80;99.90;;;;;;5012284;28;20053;-31
2023/08/02 03:36:03;;;;;;;3.58;1.70;;;12.80;99.90;;;;;;4998430;28;20026;-31
2023/08/02 03:38:29;;;;;;;3.20;1.60;;;12.80;99.90;;;;;;5007985;28;20771;-30
2023/08/02 03:40:54;;;;;;;2.25;1.80;;;12.80;99.90;;;;;;5002328;28;20104;-31
2023/08/02 03:43:20;;;;;;;2.75;2.00;;;12.70;99.90;;;;;;5002572;28;20034;-30
2023/08/02 03:45:46;;;;;;;2.08;1.65;;;12.70;99.90;;;;;;5004024;28;20441;-32
2023/08/02 03:48:12;;;;;;;2.55;1.55;;;12.70;99.90;;;;;;5003044;28;20037;-33
2023/08/02 03:50:38;;;;;;;2.33;1.70;;;12.60;99.90;;;;;;5003682;28;20616;-32
2023/08/02 03:53:03;;;;;;;2.28;1.50;;;12.60;99.90;;;;;;5001047;28;20022;-33
2023/08/02 03:55:29;;;;;;;1.73;1.30;;;12.60;99.90;;;;;;5006443;28;20053;-32
2023/08/02 03:57:54;;;;;;;1.30;1.20;;;12.60;99.90;;;;;;5001704;28;20029;-33
2023/08/02 04:00:20;;;;;;;1.30;1.10;;;12.50;99.90;;;;;;5001395;28;20050;-31
2023/08/02 04:02:45;;;;;;;1.63;1.45;;;12.40;99.90;;;;;;5004139;28;20607;-31
2023/08/02 04:05:11;;;;;;;2.58;1.30;;;12.50;99.90;;;;;;5009028;28;20038;-31
2023/08/02 04:07:37;;;;;;;1.73;1.13;;;12.50;99.90;;;;;;5002698;28;20034;-33
2023/08/02 04:10:03;;;;;;;1.58;1.48;;;12.50;99.90;;;;;;5000551;28;20456;-30
2023/08/02 04:12:28;;;;;;;2.97;1.50;;;12.60;99.90;;;;;;5000144;28;20061;-31
2023/08/02 04:14:54;;;;;;;1.85;1.13;;;12.50;99.90;;;;;;5000572;28;20099;-30
2023/08/02 04:17:20;;;;;;;0.90;0.90;;;12.40;99.90;;;;;;5003639;28;20037;-30
2023/08/02 04:19:46;;;;;;;1.58;1.10;;;12.50;99.90;;;;;;5016446;28;20026;-31
2023/08/02 04:22:12;;;;;;;0.93;0.93;;;12.60;99.90;;;;;;5007133;28;20034;-32
2023/08/02 04:24:37;;;;;;;1.92;1.30;;;12.70;99.90;;;;;;5007733;28;20029;-32
2023/08/02 04:27:03;;;;;;;2.45;1.33;;;12.70;99.90;;;;;;5006971;28;20049;-30
2023/08/02 04:29:29;;;;;;;1.35;1.25;;;12.60;99.90;;;;;;5002386;28;20069;-33
2023/08/02 04:31:54;;;;;;;2.10;1.50;;;12.70;99.90;;;;;;5007310;28;20518;-32
2023/08/02 04:34:20;;;;;;;2.05;1.48;;;12.80;99.90;;;;;;5008607;28;20053;-30
2023/08/02 04:36:46;;;;;;;1.63;1.30;;;12.80;99.90;;;;;;5005394;28;20026;-31
2023/08/02 04:39:12;;;;;;;2.65;1.88;;;12.80;99.90;;;;;;5001456;28;20105;-32
2023/08/02 04:41:37;;;;;;;1.73;1.40;;;12.90;99.90;;;;;;5008949;28;20589;-30
2023/08/02 04:44:03;;;;;;;2.35;1.73;;;12.90;99.90;;;;;;4999165;28;20105;-30
2023/08/02 04:46:29;;;;;;;3.75;1.90;;;13.00;99.90;;;;;;5000515;28;20050;-31
2023/08/02 04:48:54;;;;;;;3.80;1.85;;;13.00;99.90;;;;;;5007717;28;20030;-30
2023/08/02 04:51:20;;;;;;;3.67;2.28;;;13.00;99.90;;;;;;5003594;28;20029;-30
2023/08/02 04:53:48;;;;;;;3.75;2.08;;;13.10;99.90;;;;;;5006373;28;20608;-31
2023/08/02 04:56:15;;;;;;;2.42;2.00;;;13.10;99.90;;;;;;5006764;28;20038;-30
2023/08/02 04:58:41;;;;;;;3.38;2.30;;;13.20;99.90;;;;;;5004794;28;20083;-40
2023/08/02 05:01:07;;;;;;;3.55;2.20;;;13.30;99.90;;;;;;5005226;28;20558;-40
2023/08/02 05:03:33;;;;;;;4.45;2.60;;;13.30;99.90;;;;;;5002557;28;20096;-40
2023/08/02 05:06:03;;;;;;;2.47;1.90;;;13.40;99.90;;;;;;5004761;28;20493;-40
2023/08/02 05:08:34;;;;;;;4.45;2.60;;;13.40;99.90;;;;;;5009089;28;20040;-39
2023/08/02 05:11:00;;;;;;;3.47;2.15;;;13.50;99.90;;;;;;5003850;28;20045;-30
2023/08/02 05:13:26;;;;;;;4.22;2.50;;;13.60;99.90;;;;;;5005897;28;20487;-32
2023/08/02 05:15:54;;;;;;;2.95;2.58;;;13.60;99.90;;;;;;4998372;28;20027;-30
2023/08/02 05:18:20;;;;;;;5.05;2.95;;;13.70;99.90;;;;;;4996567;28;20031;-30
2023/08/02 05:20:46;;;;;;;5.07;3.08;;;13.80;99.90;;;;;;5008170;28;20041;-32
2023/08/02 05:23:11;;;;;;;3.22;2.30;;;13.80;99.90;;;;;;5002435;28;20423;-34
2023/08/02 05:25:38;;;;;;;5.13;3.30;;;13.90;99.90;;;;;;5009803;28;20561;-31
2023/08/02 05:28:04;;;;;;;3.55;2.67;;;13.90;99.90;;;;;;5002911;28;20050;-33
2023/08/02 05:30:31;;;;;;;3.78;2.65;;;14.00;99.90;;;;;;5001879;28;20079;-30
2023/08/02 05:32:57;;;;;;;3.60;2.85;;;14.10;99.90;;;;;;5000740;28;20084;-31
2023/08/02 05:35:23;;;;;;;3.50;2.47;;;14.10;99.90;;;;;;5006494;28;21827;-30
2023/08/02 05:37:49;;;;;;;4.25;2.90;;;14.20;99.90;;;;;;4986840;28;20149;-31
2023/08/02 05:40:15;;;;;;;4.22;3.15;;;14.30;99.90;;;;;;5002171;28;20129;-30
2023/08/02 05:42:41;;;;;;;5.32;3.72;;;14.30;99.90;;;;;;5002466;28;20101;-30
2023/08/02 05:45:07;;;;;;;3.78;2.78;;;14.40;99.90;;;;;;5003802;28;20050;-33
2023/08/02 05:47:34;;;;;;;8.27;3.55;;;14.50;99.90;;;;;;5001518;28;20084;-31
2023/08/02 05:49:59;;;;;;;4.22;2.70;;;14.50;99.90;;;;;;5005197;28;20034;-32
2023/08/02 05:52:25;;;;;;;4.82;3.30;;;14.50;99.90;;;;;;5010716;28;20479;-33
2023/08/02 05:54:50;;;;;;;6.38;3.63;;;14.60;99.90;;;;;;5004227;28;20029;-30
2023/08/02 05:57:16;;;;;;;6.25;3.33;;;14.60;99.90;;;;;;5006806;28;20155;-33
2023/08/02 05:59:42;;;;;;;3.67;3.20;;;14.70;99.90;;;;;;5005256;28;20026;-34
2023/08/02 06:02:08;;;;;;;3.90;3.08;;;14.70;99.90;;;;;;5008545;28;20484;-30
2023/08/02 06:04:39;;;;;;;7.07;3.35;;;14.70;99.90;;;;;;5004325;28;20030;-31
2023/08/02 06:07:04;;;;;;;4.90;3.60;;;14.70;99.90;;;;;;5007253;28;20029;-34
2023/08/02 06:09:30;;;;;;;8.23;3.42;;;14.80;99.90;;;;;;5002565;28;20446;-37
2023/08/02 06:11:56;;;;;;;4.35;3.45;;;14.80;99.90;;;;;;5002378;28;20761;-40
2023/08/02 06:14:22;;;;;;;5.22;3.30;;;14.80;99.90;;;;;;5003204;28;20050;-40
2023/08/02 06:16:48;;;;;;;5.38;3.38;;;14.80;99.90;;;;;;5002223;28;20034;-40
2023/08/02 06:19:14;;;;;;;4.85;3.17;;;14.90;99.90;;;;;;5000538;28;20867;-31
2023/08/02 06:21:40;;;;;;;5.47;3.70;;;14.90;99.90;;;;;;4996989;28;20063;-30
2023/08/02 06:24:05;;;;;;;5.85;3.60;;;14.90;99.90;;;;;;5003315;28;20068;-32
2023/08/02 06:26:31;;;;;;;5.78;3.42;;;15.00;99.90;;;;;;5005083;28;20160;-30
2023/08/02 06:28:57;;;;;;;3.70;3.08;;;15.00;99.90;;;;;;5011225;28;20042;-32
2023/08/02 06:31:23;;;;;;;6.45;3.60;;;15.00;99.90;;;;;;5006376;28;20068;-30
2023/08/02 06:33:48;;;;;;;5.63;3.20;;;15.00;99.90;;;;;;5005516;28;20025;-31
2023/08/02 06:36:14;;;;;;;5.93;4.00;;;15.00;99.90;;;;;;5004985;28;20035;-33
2023/08/02 06:38:39;;;;;;;5.45;3.30;;;15.00;99.90;;;;;;4986943;28;21452;-30
2023/08/02 06:41:05;;;;;;;6.05;3.10;;;15.00;99.90;;;;;;4983439;28;20038;-32
2023/08/02 06:43:31;;;;;;;6.57;3.88;;;15.00;99.90;;;;;;5006765;28;20089;-33
2023/08/02 06:45:57;;;;;;;4.65;3.38;;;15.00;99.90;;;;;;5011395;28;20099;-30
2023/08/02 06:48:24;;;;;;;5.75;3.63;;;15.00;99.90;;;;;;5004066;28;20041;-33
2023/08/02 06:50:51;;;;;;;4.88;3.55;;;15.10;99.90;;;;;;5001948;28;20034;-32
2023/08/02 06:53:17;;;;;;;7.35;3.60;;;15.10;99.90;;;;;;5003786;28;20046;-31
2023/08/02 06:55:42;;;;;;;5.93;3.08;;;15.10;99.90;;;;;;5004506;28;20470;-31
2023/08/02 06:58:08;;;;;;;7.07;3.78;;;15.20;99.90;;;;;;5002170;28;20495;-33
2023/08/02 07:00:34;;;;;;;3.25;2.50;;;15.20;99.90;;;;;;4997806;28;20072;-30
2023/08/02 07:03:00;;;;;;;4.82;2.95;;;15.20;99.90;;;;;;5001579;28;20133;-31
2023/08/02 07:05:28;;;;;;;3.72;2.80;;;15.20;99.90;;;;;;4999054;28;20069;-32
2023/08/02 07:07:58;;;;;;;3.65;2.60;;;15.20;99.90;;;;;;5002391;28;20037;-30
2023/08/02 07:10:24;;;;;;;3.90;2.20;;;15.20;99.90;;;;;;4994864;28;20033;-33
2023/08/02 07:12:50;;;;;;;3.80;2.47;;;15.20;99.90;;;;;;5001553;28;20026;-31
2023/08/02 07:15:17;;;;;;;2.70;2.25;;;15.20;99.90;;;;;;5002126;28;20085;-33
2023/08/02 07:17:44;;;;;;;4.30;2.78;;;15.30;99.90;;;;;;5004022;28;20034;-34
2023/08/02 07:20:10;;;;;;;3.67;2.83;;;15.30;99.90;;;;;;5001514;28;20018;-40
2023/08/02 07:22:36;;;;;;;5.13;2.42;;;15.30;99.90;;;;;;5004751;28;20047;-38
2023/08/02 07:25:02;;;;;;;3.63;2.65;;;15.30;99.90;;;;;;5000676;28;20088;-38
2023/08/02 07:27:27;;;;;;;2.65;2.40;;;15.30;99.90;;;;;;5004446;28;20588;-40
2023/08/02 07:29:53;;;;;;;4.63;2.65;;;15.30;99.90;;;;;;5001057;28;20030;-31
2023/08/02 07:32:19;;;;;;;3.55;2.63;;;15.40;99.90;;;;;;5001284;28;20049;-31
2023/08/02 07:34:44;;;;;;;4.03;2.40;;;15.40;99.90;;;;;;5006207;28;20080;-33
2023/08/02 07:37:10;;;;;;;6.07;3.30;;;15.40;99.90;;;;;;5000042;28;20019;-32
2023/08/02 07:39:38;;;;;;;4.75;2.28;;;15.40;99.90;;;;;;5003110;28;20030;-37
2023/08/02 07:42:04;;;;;;;2.88;2.42;;;15.40;99.90;;;;;;5007426;28;20052;-31
2023/08/02 07:44:29;;;;;;;4.60;2.28;;;15.40;99.90;;;;;;5008084;28;20080;-30
2023/08/02 07:46:55;;;;;;;4.93;2.65;;;15.40;99.90;;;;;;4987527;28;20479;-30
2023/08/02 07:49:21;;;;;;;3.58;2.58;;;15.40;99.90;;;;;;5006241;28;20026;-30
2023/08/02 07:51:46;;;;;;;3.47;2.20;;;15.40;99.90;;;;;;5002461;28;20478;-34
2023/08/02 07:54:12;;;;;;;4.25;2.60;;;15.50;99.90;;;;;;4996669;28;20157;-31
2023/08/02 07:56:38;;;;;;;2.60;2.10;;;15.50;99.90;;;;;;5005738;28;20041;-32
2023/08/02 07:59:03;;;;;;;4.75;2.55;;;15.50;99.90;;;;;;4999732;28;20022;-33
2023/08/02 08:01:29;;;;;;;4.03;2.75;;;15.50;99.90;;;;;;5007036;28;20034;-31
2023/08/02 08:03:54;;;;;;;4.18;2.38;;;15.50;99.90;;;;;;5008191;28;20034;-31
2023/08/02 08:06:23;;;;;;;4.38;2.40;;;15.50;99.90;;;;;;5000816;28;20041;-31
2023/08/02 08:08:49;;;;;;;4.53;2.50;;;15.50;99.90;;;;;;4986063;28;20467;-31
2023/08/02 08:11:15;;;;;;;4.57;2.38;;;15.50;99.90;;;;;;5007040;28;20061;-30
2023/08/02 08:13:40;;;;;;;3.92;2.60;;;15.60;99.90;;;;;;5010068;28;20509;-31
2023/08/02 08:16:06;;;;;;;4.70;2.20;;;15.60;99.90;;;;;;5006920;28;20149;-32
2023/08/02 08:18:33;;;;;;;3.88;2.67;;;15.60;99.90;;;;;;5002837;28;20040;-30
2023/08/02 08:21:03;;;;;;;3.60;2.60;;;15.60;99.90;;;;;;5006911;28;20034;-30
2023/08/02 08:23:30;;;;;;;3.50;2.85;;;15.60;99.90;;;;;;5004588;28;20039;-30
2023/08/02 08:25:55;;;;;;;3.17;2.03;;;15.60;99.90;;;;;;4991751;28;20790;-30
2023/08/02 08:28:21;;;;;;;3.90;2.30;;;15.70;99.90;;;;;;5009832;28;20049;-30
2023/08/02 08:30:47;;;;;;;3.85;2.30;;;15.70;99.90;;;;;;5006099;28;20041;-32
2023/08/02 08:33:13;;;;;;;3.78;2.30;;;15.70;99.90;;;;;;5010261;28;20050;-30
2023/08/02 08:35:38;;;;;;;4.25;2.47;;;15.80;99.90;;;;;;5009714;28;20490;-31
2023/08/02 08:38:04;;;;;;;3.05;2.17;;;15.80;99.90;;;;;;5004635;28;20035;-30
2023/08/02 08:40:32;;;;;;;2.65;1.90;;;15.80;99.90;;;;;;5008513;28;20026;-34
2023/08/02 08:42:57;;;;;;;4.22;1.98;;;15.80;99.90;;;;;;5009715;28;20482;-32
2023/08/02 08:45:24;;;;;;;2.33;1.58;;;15.80;99.90;;;;;;5003396;28;20045;-31
2023/08/02 08:47:51;;;;;;;4.10;2.05;;;15.90;99.90;;;;;;5009100;28;20030;-34
2023/08/02 08:50:21;;;;;;;3.00;2.13;;;15.80;99.90;;;;;;5009019;28;20034;-31
2023/08/02 08:52:50;;;;;;;2.65;2.08;;;15.80;99.90;;;;;;4988767;28;20033;-31
2023/08/02 08:55:17;;;;;;;2.45;2.25;;;15.90;99.90;;;;;;5002646;28;20029;-31
2023/08/02 08:57:45;;;;;;;4.53;2.65;;;15.90;99.90;;;;;;5007536;28;20475;-34
2023/08/02 09:00:12;;;;;;;3.22;2.05;;;15.90;99.90;;;;;;5007254;28;20036;-36
2023/08/02 09:02:39;;;;;;;4.35;2.15;;;15.90;99.90;;;;;;5002790;28;20469;-32
2023/08/02 09:05:05;;;;;;;3.20;1.67;;;15.90;99.90;;;;;;5011656;28;20105;-34
2023/08/02 09:07:31;;;;;;;3.85;1.90;;;15.90;99.90;;;;;;4983258;28;20751;-33
2023/08/02 09:09:57;;;;;;;3.33;2.00;;;15.90;99.90;;;;;;5007544;28;20064;-32
2023/08/02 09:12:27;;;;;;;3.45;2.00;;;15.90;99.90;;;;;;5000174;28;20053;-31
2023/08/02 09:15:07;;;;;;;3.50;2.22;;;15.90;99.90;;;;;;5002346;28;20025;-31
2023/08/02 09:17:50;;;;;;;4.03;2.67;;;16.00;99.90;;;;;;4997203;28;20091;-32
2023/08/02 09:20:17;;;;;;;2.72;2.00;;;16.00;99.90;;;;;;5010036;28;20030;-31
2023/08/02 09:22:43;;;;;;;2.92;2.40;;;16.00;99.90;;;;;;5006890;28;20084;-31
2023/08/02 09:25:28;;;;;;;4.00;2.20;;;16.00;99.90;;;;;;4986697;28;20383;-32
2023/08/02 09:27:58;;;;;;;2.70;2.00;;;16.00;99.90;;;;;;4999794;28;20474;-32
2023/08/02 09:30:34;;;;;;;2.85;1.60;;;16.00;99.90;;;;;;5003771;28;20037;-32
2023/08/02 09:33:08;;;;;;;2.35;1.83;;;15.90;99.90;;;;;;5005548;28;20061;-32
2023/08/02 09:35:47;;;;;;;2.33;1.88;;;15.90;99.90;;;;;;5006142;28;20026;-32
2023/08/02 09:38:13;;;;;;;2.58;1.90;;;15.90;99.90;;;;;;4998719;28;20037;-32
2023/08/02 09:40:40;;;;;;;3.25;2.10;;;15.90;99.90;;;;;;5002711;28;20049;-41
2023/08/02 09:43:09;;;;;;;4.88;2.25;;;15.90;99.90;;;;;;5001310;28;20025;-39
2023/08/02 09:45:36;;;;;;;2.85;2.05;;;15.90;99.90;;;;;;5001491;28;20029;-39
2023/08/02 09:48:02;;;;;;;2.67;2.00;;;15.90;99.90;;;;;;5008248;28;20053;-38
2023/08/02 09:50:28;;;;;;;2.90;1.90;;;15.90;99.90;;;;;;5005167;28;20042;-31
2023/08/02 09:52:54;;;;;;;2.33;1.90;;;15.90;99.90;;;;;;5006185;28;20030;-31
2023/08/02 09:55:20;;;;;;;2.95;2.05;;;15.90;99.90;;;;;;5004109;28;20275;-33
2023/08/02 09:57:47;;;;;;;3.35;2.10;;;15.80;99.90;;;;;;5004933;28;20898;-32
2023/08/02 10:00:14;;;;;;;4.97;2.10;;;15.90;99.90;;;;;;5008752;28;20228;-31
2023/08/02 10:02:40;;;;;;;4.82;2.13;;;15.90;99.90;;;;;;5002621;28;20083;-33
2023/08/02 10:05:07;;;;;;;2.28;2.00;;;15.90;99.90;;;;;;5002180;28;20105;-34
2023/08/02 10:07:49;;;;;;;2.85;2.05;;;16.00;99.90;;;;;;5006332;28;20031;-32
2023/08/02 10:10:25;;;;;;;2.15;1.67;;;16.10;99.90;;;;;;5005832;28;20040;-33
2023/08/02 10:13:13;;;;;;;4.22;2.15;;;16.10;99.90;;;;;;5001813;28;20037;-35
2023/08/02 10:15:40;;;;;;;;;;;16.20;99.90;;;;;;5002500;28;20052;-32
2023/08/02 10:18:06;;;;;;;3.47;2.00;;;16.30;99.90;;;;;;5005425;28;19931;-32
2023/08/02 10:20:33;;;;;;;4.07;2.25;;;16.30;99.90;;;;;;5008152;28;20037;-34
2023/08/02 10:23:03;;;;;;;2.88;2.00;;;16.40;99.90;;;;;;5005078;28;20034;-32
2023/08/02 10:25:32;;;;;;;2.30;2.10;;;16.40;99.90;;;;;;5008591;28;20065;-34
2023/08/02 10:27:59;;;;;;;2.47;2.00;;;16.40;99.90;;;;;;5001908;28;20442;-32
2023/08/02 10:30:26;;;;;;;4.03;2.30;;;16.60;99.90;;;;;;5006933;28;20042;-35
2023/08/02 10:33:14;;;;;;;2.92;2.20;;;16.70;99.90;;;;;;5003913;28;20033;-33
2023/08/02 10:35:59;;;;;;;4.15;2.22;;;17.00;99.90;;;;;;5009421;28;20177;-32
2023/08/02 10:38:39;;;;;;;2.63;2.05;;;16.90;99.90;;;;;;4999959;28;20029;-33
2023/08/02 10:41:08;;;;;;;3.03;2.17;;;17.00;99.90;;;;;;5003481;28;20097;-32
2023/08/02 10:43:34;;;;;;;3.60;2.47;;;17.10;99.90;;;;;;5003245;28;20026;-32
2023/08/02 10:46:16;;;;;;;3.63;2.42;;;17.20;99.90;;;;;;5011546;28;20037;-33
2023/08/02 10:48:42;;;;;;;4.00;2.20;;;17.30;99.90;;;;;;5000074;28;20457;-41
2023/08/02 10:51:32;;;;;;;3.42;2.22;;;17.50;99.90;;;;;;5001161;28;20049;-40
2023/08/02 10:54:22;;;;;;;3.85;2.10;;;17.70;99.90;;;;;;4999274;28;20062;-40
2023/08/02 10:56:54;;;;;;;3.83;2.30;;;17.90;99.90;;;;;;5002942;28;20022;-41
2023/08/02 10:59:23;;;;;;;3.97;2.10;;;18.20;99.90;;;;;;5001629;28;20494;-31
2023/08/02 11:02:00;;;;;;;3.60;2.75;;;18.40;99.90;;;;;;5000985;28;20048;-31
2023/08/02 11:04:27;;;;;;;3.63;2.17;;;18.40;99.90;;;;;;4983501;28;20372;-34
2023/08/02 11:06:52;;;;;;;3.28;2.65;;;18.50;99.90;;;;;;4981340;28;20363;-32
2023/08/02 11:09:29;;;;;;;2.53;2.00;;;18.90;99.90;;;;;;5007409;28;20049;-32
2023/08/02 11:11:54;;;;;;;3.15;2.38;;;19.50;99.90;;;;;;5007393;28;20395;-30
2023/08/02 11:14:27;;;;;;;2.28;2.08;;;19.60;99.90;;;;;;5020809;28;20026;-34
2023/08/02 11:16:54;;;;;;;3.15;2.15;;;19.70;99.90;;;;;;5002758;28;20487;-34
2023/08/02 11:19:21;;;;;;;3.55;1.88;;;19.80;99.90;;;;;;4993367;28;20044;-30
2023/08/02 11:21:58;;;;;;;2.25;1.70;;;20.10;99.90;;;;;;5006145;28;20163;-32
2023/08/02 11:24:24;;;;;;;3.80;2.30;;;20.30;99.90;;;;;;5001468;28;20505;-32
2023/08/02 11:26:56;;;;;;;2.63;1.88;;;20.50;99.90;;;;;;5006583;28;20027;-30
2023/08/02 11:29:22;;;;;;;2.47;2.15;;;20.50;99.90;;;;;;4997154;28;20045;-30
2023/08/02 11:31:48;;;;;;;2.58;2.15;;;20.90;99.90;;;;;;5001585;28;20573;-31
2023/08/02 11:34:18;;;;;;;2.88;1.80;;;21.20;99.90;;;;;;5005729;28;20038;-30
2023/08/02 11:36:48;;;;;;;3.13;2.10;;;21.50;99.90;;;;;;5005410;28;20514;-30
2023/08/02 11:39:14;;;;;;;3.42;2.17;;;21.80;99.90;;;;;;5005128;28;20034;-30
2023/08/02 11:41:40;;;;;;;4.07;2.22;;;21.90;99.90;;;;;;5005337;28;20062;-31
2023/08/02 11:44:32;;;;;;;2.10;1.75;;;21.80;99.90;;;;;;5008406;28;20459;-30
2023/08/02 11:46:57;;;;;;;3.05;1.90;;;21.80;99.90;;;;;;5004254;28;20050;-31
2023/08/02 11:49:23;;;;;;;2.25;2.00;;;22.10;99.90;;;;;;5003697;28;20037;-30
2023/08/02 11:51:49;;;;;;;2.50;1.98;;;22.30;99.90;;;;;;5010703;28;20030;-30
2023/08/02 11:54:15;;;;;;;3.00;2.10;;;22.50;99.90;;;;;;5011888;28;20038;-30
2023/08/02 11:56:41;;;;;;;2.00;1.70;;;22.00;99.90;;;;;;5009526;28;20105;-30
2023/08/02 11:59:11;;;;;;;2.53;2.00;;;22.00;99.90;;;;;;4993103;28;20091;-39
2023/08/02 12:01:41;;;;;;;2.58;2.00;;;22.20;99.90;;;;;;5011221;28;20064;-39
2023/08/02 12:04:08;;;;;;;2.90;1.90;;;22.40;99.90;;;;;;4999811;28;20475;-38
2023/08/02 12:06:51;;;;;;;2.22;1.67;;;22.40;99.90;;;;;;5002982;28;20446;-40
2023/08/02 12:09:17;;;;;;;1.75;1.63;;;22.60;99.90;;;;;;5008056;28;20034;-40
2023/08/02 12:11:44;;;;;;;1.92;1.77;;;22.80;99.90;;;;;;5010189;28;20022;-38
2023/08/02 12:14:10;;;;;;;2.70;1.75;;;23.10;99.90;;;;;;5002151;28;20038;-39
2023/08/02 12:16:43;;;;;;;4.97;2.00;;;23.40;99.90;;;;;;5020102;28;20037;-39
2023/08/02 12:19:10;;;;;;;1.55;1.45;;;23.60;99.90;;;;;;4989553;28;20132;-39
2023/08/02 12:21:36;;;;;;;2.50;1.80;;;23.40;99.90;;;;;;5004773;28;20052;-41
2023/08/02 12:24:13;;;;;;;2.20;1.60;;;23.60;99.90;;;;;;5004828;28;20037;-39
2023/08/02 12:26:39;;;;;;;1.70;1.60;;;23.80;99.90;;;;;;5009416;28;20116;-39
2023/08/02 12:29:05;;;;;;;3.65;1.88;;;23.90;99.90;;;;;;4999607;28;20069;-40
2023/08/02 12:31:42;;;;;;;2.45;1.70;;;23.80;99.90;;;;;;5003701;28;20112;-40
2023/08/02 12:34:08;;;;;;;2.22;2.03;;;24.00;99.90;;;;;;5003305;28;20034;-40
2023/08/02 12:36:34;;;;;;;1.95;1.63;;;24.20;99.90;;;;;;5002131;28;20422;-39
2023/08/02 12:38:59;;;;;;;2.28;1.80;;;24.40;99.90;;;;;;5006893;28;20095;-40
2023/08/02 12:41:25;;;;;;;2.00;1.60;;;24.40;99.90;;;;;;5003774;28;20477;-38
2023/08/02 12:43:51;;;;;;;2.60;1.77;;;24.40;99.90;;;;;;5010435;28;20644;-41
2023/08/02 12:46:18;;;;;;;9.68;2.20;;;24.60;99.90;;;;;;4999035;28;20030;-38
2023/08/02 12:48:44;;;;;;;2.00;1.67;;;25.10;99.90;;;;;;5006785;28;20037;-38